sensor_id;sensor_type;location;lat;lon;timestamp;pressure;altitude;pressure_sealevel;temperature;humidity
41684;BME280;27369;52.030;4.586;2023-04-23T00:01:37;-20807.34;;;-144.41;100.00
41684;BME280;27369;52.030;4.586;2023-04-23T00:04:07;-20807.34;;;-144.41;100.00
41684;BME280;27369;52.030;4.586;2023-04-23T00:06:32;-20807.34;;;-144.41;100.00
41684;BME280;27369;52.030;4.586;2023-04-23T00:08:59;-20807.34;;;-144.41;100.00
41684;BME280;27369;52.030;4.586;2023-04-23T00:11:26;-20807.34;;;-144.41;100.00
41684;BME280;27369;52.030;4.586;2023-04-23T00:13:51;-20807.34;;;-144.41;100.00
41684;BME280;27369;52.030;4.586;2023-04-23T00:16:18;-20807.34;;;-144.41;100.00
41684;BME280;27369;52.030;4.586;2023-04-23T00:18:44;-20807.34;;;-144.41;100.00
41684;BME280;27369;52.030;4.586;2023-04-23T00:21:09;-20807.34;;;-144.41;100.00
41684;BME280;27369;52.030;4.586;2023-04-23T00:23:37;-20807.34;;;-144.41;100.00
41684;BME280;27369;52.030;4.586;2023-04-23T00:26:03;-20807.34;;;-144.41;100.00
41684;BME280;27369;52.030;4.586;2023-04-23T00:28:28;-20807.34;;;-144.41;100.00
41684;BME280;27369;52.030;4.586;2023-04-23T00:30:53;-20807.34;;;-144.41;100.00
41684;BME280;27369;52.030;4.586;2023-04-23T00:33:19;-20807.34;;;-144.41;100.00
41684;BME280;27369;52.030;4.586;2023-04-23T00:35:45;-20807.34;;;-144.41;100.00
41684;BME280;27369;52.030;4.586;2023-04-23T00:38:10;-20807.34;;;-144.41;100.00
41684;BME280;27369;52.030;4.586;2023-04-23T00:40:35;-20807.34;;;-144.41;100.00
41684;BME280;27369;52.030;4.586;2023-04-23T00:43:01;-20807.34;;;-144.41;100.00
41684;BME280;27369;52.030;4.586;2023-04-23T00:45:27;-20807.34;;;-144.41;100.00
41684;BME280;27369;52.030;4.586;2023-04-23T00:47:52;-20807.34;;;-144.41;100.00
41684;BME280;27369;52.030;4.586;2023-04-23T00:50:18;-20807.34;;;-144.41;100.00
41684;BME280;27369;52.030;4.586;2023-04-23T00:52:45;-20807.34;;;-144.41;100.00
41684;BME280;27369;52.030;4.586;2023-04-23T00:55:10;-20807.34;;;-144.41;100.00
41684;BME280;27369;52.030;4.586;2023-04-23T00:57:37;-20807.34;;;-144.41;100.00
41684;BME280;27369;52.030;4.586;2023-04-23T01:00:04;-20807.34;;;-144.41;100.00
41684;BME280;27369;52.030;4.586;2023-04-23T01:02:31;-20807.34;;;-144.41;100.00
41684;BME280;27369;52.030;4.586;2023-04-23T01:04:57;-20807.34;;;-144.41;100.00
41684;BME280;27369;52.030;4.586;2023-04-23T01:07:24;-20807.34;;;-144.41;100.00
41684;BME280;27369;52.030;4.586;2023-04-23T01:09:50;-20807.34;;;-144.41;100.00
41684;BME280;27369;52.030;4.586;2023-04-23T01:12:16;-20807.34;;;-144.41;100.00
41684;BME280;27369;52.030;4.586;2023-04-23T01:14:42;-20807.34;;;-144.41;100.00
41684;BME280;27369;52.030;4.586;2023-04-23T01:17:08;-20807.34;;;-144.41;100.00
41684;BME280;27369;52.030;4.586;2023-04-23T01:19:34;-20807.34;;;-144.41;100.00
41684;BME280;27369;52.030;4.586;2023-04-23T01:22:01;-20807.34;;;-144.41;100.00
41684;BME280;27369;52.030;4.586;2023-04-23T01:24:28;-20807.34;;;-144.41;100.00
41684;BME280;27369;52.030;4.586;2023-04-23T01:26:55;-20807.34;;;-144.41;100.00
41684;BME280;27369;52.030;4.586;2023-04-23T01:29:23;-20807.34;;;-144.41;100.00
41684;BME280;27369;52.030;4.586;2023-04-23T01:31:49;-20807.34;;;-144.41;100.00
41684;BME280;27369;52.030;4.586;2023-04-23T01:34:15;-20807.34;;;-144.41;100.00
41684;BME280;27369;52.030;4.586;2023-04-23T01:36:42;-20807.34;;;-144.41;100.00
41684;BME280;27369;52.030;4.586;2023-04-23T01:39:08;-20807.34;;;-144.41;100.00
41684;BME280;27369;52.030;4.586;2023-04-23T01:41:34;-20807.34;;;-144.41;100.00
41684;BME280;27369;52.030;4.586;2023-04-23T01:44:00;-20807.34;;;-144.41;100.00
41684;BME280;27369;52.030;4.586;2023-04-23T01:46:26;-20807.34;;;-144.41;100.00
41684;BME280;27369;52.030;4.586;2023-04-23T01:48:52;-20807.34;;;-144.41;100.00
41684;BME280;27369;52.030;4.586;2023-04-23T01:51:17;-20807.34;;;-144.41;100.00
41684;BME280;27369;52.030;4.586;2023-04-23T01:53:43;-20807.34;;;-144.41;100.00
41684;BME280;27369;52.030;4.586;2023-04-23T01:56:08;-20807.34;;;-144.41;100.00
41684;BME280;27369;52.030;4.586;2023-04-23T01:58:34;-20807.34;;;-144.41;100.00
41684;BME280;27369;52.030;4.586;2023-04-23T02:01:00;-20807.34;;;-144.41;100.00
41684;BME280;27369;52.030;4.586;2023-04-23T02:03:27;-20807.34;;;-144.41;100.00
41684;BME280;27369;52.030;4.586;2023-04-23T02:05:54;-20807.34;;;-144.41;100.00
41684;BME280;27369;52.030;4.586;2023-04-23T02:08:20;-20807.34;;;-144.41;100.00
41684;BME280;27369;52.030;4.586;2023-04-23T02:10:45;-20807.34;;;-144.41;100.00
41684;BME280;27369;52.030;4.586;2023-04-23T02:13:11;-20807.34;;;-144.41;100.00
41684;BME280;27369;52.030;4.586;2023-04-23T02:15:36;-20807.34;;;-144.41;100.00
41684;BME280;27369;52.030;4.586;2023-04-23T02:18:02;-20807.34;;;-144.41;100.00
41684;BME280;27369;52.030;4.586;2023-04-23T02:20:28;-20807.34;;;-144.41;100.00
41684;BME280;27369;52.030;4.586;2023-04-23T02:22:53;-20807.34;;;-144.41;100.00
41684;BME280;27369;52.030;4.586;2023-04-23T02:25:19;-20807.34;;;-144.41;100.00
41684;BME280;27369;52.030;4.586;2023-04-23T02:27:46;-20807.34;;;-144.41;100.00
41684;BME280;27369;52.030;4.586;2023-04-23T02:30:12;-20807.34;;;-144.41;100.00
41684;BME280;27369;52.030;4.586;2023-04-23T02:32:38;-20807.34;;;-144.41;100.00
41684;BME280;27369;52.030;4.586;2023-04-23T02:35:04;-20807.34;;;-144.41;100.00
41684;BME280;27369;52.030;4.586;2023-04-23T02:37:33;-20807.34;;;-144.41;100.00
41684;BME280;27369;52.030;4.586;2023-04-23T02:39:58;-20807.34;;;-144.41;100.00
41684;BME280;27369;52.030;4.586;2023-04-23T02:42:24;-20807.34;;;-144.41;100.00
41684;BME280;27369;52.030;4.586;2023-04-23T02:44:49;-20807.34;;;-144.41;100.00
41684;BME280;27369;52.030;4.586;2023-04-23T02:47:15;-20807.34;;;-144.41;100.00
41684;BME280;27369;52.030;4.586;2023-04-23T02:49:41;-20807.34;;;-144.41;100.00
41684;BME280;27369;52.030;4.586;2023-04-23T02:52:06;-20807.34;;;-144.41;100.00
41684;BME280;27369;52.030;4.586;2023-04-23T02:54:32;-20807.34;;;-144.41;100.00
41684;BME280;27369;52.030;4.586;2023-04-23T02:56:58;-20807.34;;;-144.41;100.00
41684;BME280;27369;52.030;4.586;2023-04-23T02:59:23;-20807.34;;;-144.41;100.00
41684;BME280;27369;52.030;4.586;2023-04-23T03:01:49;-20807.34;;;-144.41;100.00
41684;BME280;27369;52.030;4.586;2023-04-23T03:04:16;-20807.34;;;-144.41;100.00
41684;BME280;27369;52.030;4.586;2023-04-23T03:06:42;-20807.34;;;-144.41;100.00
41684;BME280;27369;52.030;4.586;2023-04-23T03:09:07;-20807.34;;;-144.41;100.00
41684;BME280;27369;52.030;4.586;2023-04-23T03:11:33;-20807.34;;;-144.41;100.00
41684;BME280;27369;52.030;4.586;2023-04-23T03:13:58;-20807.34;;;-144.41;100.00
41684;BME280;27369;52.030;4.586;2023-04-23T03:16:25;-20807.34;;;-144.41;100.00
41684;BME280;27369;52.030;4.586;2023-04-23T03:18:51;-20807.34;;;-144.41;100.00
41684;BME280;27369;52.030;4.586;2023-04-23T03:21:16;-20807.34;;;-144.41;100.00
41684;BME280;27369;52.030;4.586;2023-04-23T03:23:41;-20807.34;;;-144.41;100.00
41684;BME280;27369;52.030;4.586;2023-04-23T03:26:07;-20807.34;;;-144.41;100.00
41684;BME280;27369;52.030;4.586;2023-04-23T03:28:32;-20807.34;;;-144.41;100.00
41684;BME280;27369;52.030;4.586;2023-04-23T03:30:58;-20807.34;;;-144.41;100.00
41684;BME280;27369;52.030;4.586;2023-04-23T03:33:23;-20807.34;;;-144.41;100.00
41684;BME280;27369;52.030;4.586;2023-04-23T03:35:48;-20807.34;;;-144.41;100.00
41684;BME280;27369;52.030;4.586;2023-04-23T03:38:14;-20807.34;;;-144.41;100.00
41684;BME280;27369;52.030;4.586;2023-04-23T03:40:39;-20807.34;;;-144.41;100.00
41684;BME280;27369;52.030;4.586;2023-04-23T03:43:05;-20807.34;;;-144.41;100.00
41684;BME280;27369;52.030;4.586;2023-04-23T03:45:31;-20807.34;;;-144.41;100.00
41684;BME280;27369;52.030;4.586;2023-04-23T03:47:56;-20807.34;;;-144.41;100.00
41684;BME280;27369;52.030;4.586;2023-04-23T03:50:22;-20807.34;;;-144.41;100.00
41684;BME280;27369;52.030;4.586;2023-04-23T03:52:47;-20807.34;;;-144.41;100.00
41684;BME280;27369;52.030;4.586;2023-04-23T03:55:12;-20807.34;;;-144.41;100.00
41684;BME280;27369;52.030;4.586;2023-04-23T03:57:38;-20807.34;;;-144.41;100.00
41684;BME280;27369;52.030;4.586;2023-04-23T04:00:04;-20807.34;;;-144.41;100.00
41684;BME280;27369;52.030;4.586;2023-04-23T04:02:36;-20807.34;;;-144.41;100.00
41684;BME280;27369;52.030;4.586;2023-04-23T04:05:01;-20807.34;;;-144.41;100.00
41684;BME280;27369;52.030;4.586;2023-04-23T04:07:27;-20807.34;;;-144.41;100.00
41684;BME280;27369;52.030;4.586;2023-04-23T04:09:52;-20807.34;;;-144.41;100.00
41684;BME280;27369;52.030;4.586;2023-04-23T04:12:18;-20807.34;;;-144.41;100.00
41684;BME280;27369;52.030;4.586;2023-04-23T04:14:44;-20807.34;;;-144.41;100.00
41684;BME280;27369;52.030;4.586;2023-04-23T04:17:10;-20807.34;;;-144.41;100.00
41684;BME280;27369;52.030;4.586;2023-04-23T04:19:37;-20807.34;;;-144.41;100.00
41684;BME280;27369;52.030;4.586;2023-04-23T04:22:03;-20807.34;;;-144.41;100.00
41684;BME280;27369;52.030;4.586;2023-04-23T04:24:29;-20807.34;;;-144.41;100.00
41684;BME280;27369;52.030;4.586;2023-04-23T04:26:58;-20807.34;;;-144.41;100.00
41684;BME280;27369;52.030;4.586;2023-04-23T04:29:26;-20807.34;;;-144.41;100.00
41684;BME280;27369;52.030;4.586;2023-04-23T04:31:55;-20807.34;;;-144.41;100.00
41684;BME280;27369;52.030;4.586;2023-04-23T04:34:21;-20807.34;;;-144.41;100.00
41684;BME280;27369;52.030;4.586;2023-04-23T04:36:47;-20807.34;;;-144.41;100.00
41684;BME280;27369;52.030;4.586;2023-04-23T04:39:12;-20807.34;;;-144.41;100.00
41684;BME280;27369;52.030;4.586;2023-04-23T04:41:39;-20807.34;;;-144.41;100.00
41684;BME280;27369;52.030;4.586;2023-04-23T04:44:05;-20807.34;;;-144.41;100.00
41684;BME280;27369;52.030;4.586;2023-04-23T04:46:32;-20807.34;;;-144.41;100.00
41684;BME280;27369;52.030;4.586;2023-04-23T04:48:59;-20807.34;;;-144.41;100.00
41684;BME280;27369;52.030;4.586;2023-04-23T04:51:24;-20807.34;;;-144.41;100.00
41684;BME280;27369;52.030;4.586;2023-04-23T04:53:51;-20807.34;;;-144.41;100.00
41684;BME280;27369;52.030;4.586;2023-04-23T04:56:17;-20807.34;;;-144.41;100.00
41684;BME280;27369;52.030;4.586;2023-04-23T04:58:42;-20807.34;;;-144.41;100.00
41684;BME280;27369;52.030;4.586;2023-04-23T05:01:08;-20807.34;;;-144.41;100.00
41684;BME280;27369;52.030;4.586;2023-04-23T05:03:33;-20807.34;;;-144.41;100.00
41684;BME280;27369;52.030;4.586;2023-04-23T05:05:59;-20807.34;;;-144.41;100.00
41684;BME280;27369;52.030;4.586;2023-04-23T05:08:25;-20807.34;;;-144.41;100.00
41684;BME280;27369;52.030;4.586;2023-04-23T05:10:51;-20807.34;;;-144.41;100.00
41684;BME280;27369;52.030;4.586;2023-04-23T05:13:18;-20807.34;;;-144.41;100.00
41684;BME280;27369;52.030;4.586;2023-04-23T05:15:45;-20807.34;;;-144.41;100.00
41684;BME280;27369;52.030;4.586;2023-04-23T05:18:10;-20807.34;;;-144.41;100.00
41684;BME280;27369;52.030;4.586;2023-04-23T05:20:36;-20807.34;;;-144.41;100.00
41684;BME280;27369;52.030;4.586;2023-04-23T05:23:02;-20807.34;;;-144.41;100.00
41684;BME280;27369;52.030;4.586;2023-04-23T05:25:29;-20807.34;;;-144.41;100.00
41684;BME280;27369;52.030;4.586;2023-04-23T05:27:55;-20807.34;;;-144.41;100.00
41684;BME280;27369;52.030;4.586;2023-04-23T05:30:21;-20807.34;;;-144.41;100.00
41684;BME280;27369;52.030;4.586;2023-04-23T05:32:48;-20807.34;;;-144.41;100.00
41684;BME280;27369;52.030;4.586;2023-04-23T05:35:13;-20807.34;;;-144.41;100.00
41684;BME280;27369;52.030;4.586;2023-04-23T05:37:39;-20807.34;;;-144.41;100.00
41684;BME280;27369;52.030;4.586;2023-04-23T05:40:05;-20807.34;;;-144.41;100.00
41684;BME280;27369;52.030;4.586;2023-04-23T05:42:33;-20807.34;;;-144.41;100.00
41684;BME280;27369;52.030;4.586;2023-04-23T05:44:59;-20807.34;;;-144.41;100.00
41684;BME280;27369;52.030;4.586;2023-04-23T05:47:25;-20807.34;;;-144.41;100.00
41684;BME280;27369;52.030;4.586;2023-04-23T05:49:50;-20807.34;;;-144.41;100.00
41684;BME280;27369;52.030;4.586;2023-04-23T05:52:16;-20807.34;;;-144.41;100.00
41684;BME280;27369;52.030;4.586;2023-04-23T05:54:42;-20807.34;;;-144.41;100.00
41684;BME280;27369;52.030;4.586;2023-04-23T05:57:07;-20807.34;;;-144.41;100.00
41684;BME280;27369;52.030;4.586;2023-04-23T05:59:33;-20807.34;;;-144.41;100.00
41684;BME280;27369;52.030;4.586;2023-04-23T06:01:58;-20807.34;;;-144.41;100.00
41684;BME280;27369;52.030;4.586;2023-04-23T06:04:24;-20807.34;;;-144.41;100.00
41684;BME280;27369;52.030;4.586;2023-04-23T06:06:49;-20807.34;;;-144.41;100.00
41684;BME280;27369;52.030;4.586;2023-04-23T06:09:14;-20807.34;;;-144.41;100.00
41684;BME280;27369;52.030;4.586;2023-04-23T06:11:40;-20807.34;;;-144.41;100.00
41684;BME280;27369;52.030;4.586;2023-04-23T06:14:05;-20807.34;;;-144.41;100.00
41684;BME280;27369;52.030;4.586;2023-04-23T06:16:31;-20807.34;;;-144.41;100.00
41684;BME280;27369;52.030;4.586;2023-04-23T06:18:56;-20807.34;;;-144.41;100.00
41684;BME280;27369;52.030;4.586;2023-04-23T06:21:49;-20807.34;;;-144.41;100.00
41684;BME280;27369;52.030;4.586;2023-04-23T06:24:57;-20807.34;;;-144.41;100.00
41684;BME280;27369;52.030;4.586;2023-04-23T06:27:59;-20807.34;;;-144.41;100.00
41684;BME280;27369;52.030;4.586;2023-04-23T06:31:01;-20807.34;;;-144.41;100.00
41684;BME280;27369;52.030;4.586;2023-04-23T06:36:54;-19811.00;;;-144.41;100.00
41684;BME280;27369;52.030;4.586;2023-04-23T06:39:19;-13836.22;;;-144.41;100.00
41684;BME280;27369;52.030;4.586;2023-04-23T06:41:45;-8600.66;;;-144.41;100.00
41684;BME280;27369;52.030;4.586;2023-04-23T06:44:11;-3357.91;;;-144.41;100.00
41684;BME280;27369;52.030;4.586;2023-04-23T06:46:36;2892.78;;;-144.41;100.00
41684;BME280;27369;52.030;4.586;2023-04-23T06:49:01;11410.00;;;-144.41;100.00
41684;BME280;27369;52.030;4.586;2023-04-23T06:51:27;21454.25;;;-144.41;100.00
41684;BME280;27369;52.030;4.586;2023-04-23T06:53:53;29508.34;;;-144.41;100.00
41684;BME280;27369;52.030;4.586;2023-04-23T06:56:19;34046.06;;;-144.41;100.00
41684;BME280;27369;52.030;4.586;2023-04-23T06:58:45;31020.34;;;-144.41;100.00
41684;BME280;27369;52.030;4.586;2023-04-23T07:01:11;24220.97;;;-144.41;100.00
41684;BME280;27369;52.030;4.586;2023-04-23T07:03:36;24220.97;;;-144.41;100.00
41684;BME280;27369;52.030;4.586;2023-04-23T07:06:02;18187.00;;;-144.41;100.00
41684;BME280;27369;52.030;4.586;2023-04-23T07:08:27;10908.44;;;-144.41;100.00
41684;BME280;27369;52.030;4.586;2023-04-23T07:10:53;6147.16;;;-144.41;100.00
41684;BME280;27369;52.030;4.586;2023-04-23T07:13:18;1391.69;;;-144.41;100.00
41684;BME280;27369;52.030;4.586;2023-04-23T07:15:44;141.22;;;-144.41;100.00
41684;BME280;27369;52.030;4.586;2023-04-23T07:18:09;1141.56;;;-144.41;100.00
41684;BME280;27369;52.030;4.586;2023-04-23T07:20:34;141.22;;;-144.41;100.00
41684;BME280;27369;52.030;4.586;2023-04-23T07:23:00;-608.84;;;-144.41;100.00
41684;BME280;27369;52.030;4.586;2023-04-23T07:25:28;-108.81;;;-144.41;100.00
41684;BME280;27369;52.030;4.586;2023-04-23T07:27:53;-2108.59;;;-144.41;100.00
41684;BME280;27369;52.030;4.586;2023-04-23T07:30:19;-1108.84;;;-144.41;100.00
41684;BME280;27369;52.030;4.586;2023-04-23T07:32:45;-2108.59;;;-144.41;100.00
41684;BME280;27369;52.030;4.586;2023-04-23T07:35:11;-1608.75;;;-144.41;100.00
41684;BME280;27369;52.030;4.586;2023-04-23T07:37:36;-3108.06;;;-144.41;100.00
41684;BME280;27369;52.030;4.586;2023-04-23T07:40:03;-3108.06;;;-144.41;100.00
41684;BME280;27369;52.030;4.586;2023-04-23T07:42:30;-3108.06;;;-144.41;100.00
41684;BME280;27369;52.030;4.586;2023-04-23T07:44:55;-3607.72;;;-144.41;100.00
41684;BME280;27369;52.030;4.586;2023-04-23T07:47:21;-3108.06;;;-144.41;100.00
41684;BME280;27369;52.030;4.586;2023-04-23T07:49:46;-3357.91;;;-144.41;100.00
41684;BME280;27369;52.030;4.586;2023-04-23T07:52:11;-3857.53;;;-144.41;100.00
41684;BME280;27369;52.030;4.586;2023-04-23T07:54:37;-4107.31;;;-144.41;100.00
41684;BME280;27369;52.030;4.586;2023-04-23T07:57:02;-3607.72;;;-144.41;100.00
41684;BME280;27369;52.030;4.586;2023-04-23T07:59:28;-4606.81;;;-144.41;100.00
41684;BME280;27369;52.030;4.586;2023-04-23T08:01:53;-4856.56;;;-144.41;100.00
41684;BME280;27369;52.030;4.586;2023-04-23T08:04:19;-6105.00;;;-144.41;100.00
41684;BME280;27369;52.030;4.586;2023-04-23T08:06:45;-6105.00;;;-144.41;100.00
41684;BME280;27369;52.030;4.586;2023-04-23T08:09:10;-6354.63;;;-144.41;100.00
41684;BME280;27369;52.030;4.586;2023-04-23T08:11:35;-5106.28;;;-144.41;100.00
41684;BME280;27369;52.030;4.586;2023-04-23T08:14:01;-5356.00;;;-144.41;100.00
41684;BME280;27369;52.030;4.586;2023-04-23T08:16:27;-4856.56;;;-144.41;100.00
41684;BME280;27369;52.030;4.586;2023-04-23T08:18:52;-4856.56;;;-144.41;100.00
41684;BME280;27369;52.030;4.586;2023-04-23T08:21:18;-4357.06;;;-144.41;100.00
41684;BME280;27369;52.030;4.586;2023-04-23T08:23:43;-3857.53;;;-144.41;100.00
41684;BME280;27369;52.030;4.586;2023-04-23T08:26:09;-2358.47;;;-144.41;100.00
41684;BME280;27369;52.030;4.586;2023-04-23T08:28:34;-3108.06;;;-144.41;100.00
41684;BME280;27369;52.030;4.586;2023-04-23T08:31:00;-1858.66;;;-144.41;100.00
41684;BME280;27369;52.030;4.586;2023-04-23T08:33:26;-1608.75;;;-144.41;100.00
41684;BME280;27369;52.030;4.586;2023-04-23T08:35:51;-858.84;;;-144.41;100.00
41684;BME280;27369;52.030;4.586;2023-04-23T08:38:17;-608.84;;;-144.41;100.00
41684;BME280;27369;52.030;4.586;2023-04-23T08:40:44;-3607.72;;;-144.41;100.00
41684;BME280;27369;52.030;4.586;2023-04-23T08:43:19;-9847.88;;;-144.41;100.00
41684;BME280;27369;52.030;4.586;2023-04-23T08:45:48;-10346.63;;;-144.41;100.00
41684;BME280;27369;52.030;4.586;2023-04-23T08:48:14;-12839.53;;;-144.41;100.00
41684;BME280;27369;52.030;4.586;2023-04-23T08:50:42;-17820.44;;;-144.41;100.00
41684;BME280;27369;52.030;4.586;2023-04-23T08:53:08;-20807.34;;;-144.41;100.00
41684;BME280;27369;52.030;4.586;2023-04-23T08:55:35;-20807.34;;;-144.41;100.00
41684;BME280;27369;52.030;4.586;2023-04-23T08:58:03;-20805.88;;;-144.41;100.00
41684;BME280;27369;52.030;4.586;2023-04-23T09:00:31;-20807.34;;;-144.41;100.00
41684;BME280;27369;52.030;4.586;2023-04-23T09:02:58;-20805.88;;;-144.41;100.00
41684;BME280;27369;52.030;4.586;2023-04-23T09:05:25;-20805.88;;;-144.41;100.00
41684;BME280;27369;52.030;4.586;2023-04-23T09:07:51;-20557.19;;;-144.41;100.00
41684;BME280;27369;52.030;4.586;2023-04-23T09:10:18;-20059.75;;;-144.41;100.00
41684;BME280;27369;52.030;4.586;2023-04-23T09:12:43;-20557.19;;;-144.41;100.00
41684;BME280;27369;52.030;4.586;2023-04-23T09:15:09;-20557.19;;;-144.41;100.00
41684;BME280;27369;52.030;4.586;2023-04-23T09:17:42;-20557.19;;;-144.41;100.00
41684;BME280;27369;52.030;4.586;2023-04-23T09:20:08;-20308.47;;;-144.41;100.00
41684;BME280;27369;52.030;4.586;2023-04-23T09:22:43;-20308.47;;;-144.41;100.00
41684;BME280;27369;52.030;4.586;2023-04-23T09:25:11;-19811.00;;;-144.41;100.00
41684;BME280;27369;52.030;4.586;2023-04-23T09:27:38;-19562.22;;;-144.41;100.00
41684;BME280;27369;52.030;4.586;2023-04-23T09:30:05;-19562.22;;;-144.41;100.00
41684;BME280;27369;52.030;4.586;2023-04-23T09:32:33;-19811.00;;;-144.41;100.00
41684;BME280;27369;52.030;4.586;2023-04-23T09:35:01;-19811.00;;;-144.41;100.00
41684;BME280;27369;52.030;4.586;2023-04-23T09:37:27;-19811.00;;;-144.41;100.00
41684;BME280;27369;52.030;4.586;2023-04-23T09:39:53;-20059.75;;;-144.41;100.00
41684;BME280;27369;52.030;4.586;2023-04-23T09:42:22;-20059.75;;;-144.41;100.00
41684;BME280;27369;52.030;4.586;2023-04-23T09:44:55;-19811.00;;;-144.41;100.00
41684;BME280;27369;52.030;4.586;2023-04-23T09:47:21;-19562.22;;;-144.41;100.00
41684;BME280;27369;52.030;4.586;2023-04-23T09:49:47;-19562.22;;;-144.41;100.00
41684;BME280;27369;52.030;4.586;2023-04-23T09:52:13;-19562.22;;;-144.41;100.00
41684;BME280;27369;52.030;4.586;2023-04-23T09:54:39;-19313.44;;;-144.41;100.00
41684;BME280;27369;52.030;4.586;2023-04-23T09:57:05;-18815.84;;;-144.41;100.00
41684;BME280;27369;52.030;4.586;2023-04-23T09:59:33;-18567.03;;;-144.41;100.00
41684;BME280;27369;52.030;4.586;2023-04-23T10:02:04;-18318.19;;;-144.41;100.00
41684;BME280;27369;52.030;4.586;2023-04-23T10:04:30;-17820.44;;;-144.41;100.00
41684;BME280;27369;52.030;4.586;2023-04-23T10:07:01;-18318.19;;;-144.41;100.00
41684;BME280;27369;52.030;4.586;2023-04-23T10:09:32;-17820.44;;;-144.41;100.00
41684;BME280;27369;52.030;4.586;2023-04-23T10:11:59;-17571.56;;;-144.41;100.00
41684;BME280;27369;52.030;4.586;2023-04-23T10:14:27;-18069.31;;;-144.41;100.00
41684;BME280;27369;52.030;4.586;2023-04-23T10:17:00;-18069.31;;;-144.41;100.00
41684;BME280;27369;52.030;4.586;2023-04-23T10:19:27;-17820.44;;;-144.41;100.00
41684;BME280;27369;52.030;4.586;2023-04-23T10:21:57;-17322.66;;;-144.41;100.00
41684;BME280;27369;52.030;4.586;2023-04-23T10:24:28;-17820.44;;;-144.41;100.00
41684;BME280;27369;52.030;4.586;2023-04-23T10:27:00;-17073.72;;;-144.41;100.00
41684;BME280;27369;52.030;4.586;2023-04-23T10:29:33;-17073.72;;;-144.41;100.00
41684;BME280;27369;52.030;4.586;2023-04-23T10:32:03;-16575.81;;;-144.41;100.00
41684;BME280;27369;52.030;4.586;2023-04-23T10:34:29;-16077.84;;;-144.41;100.00
41684;BME280;27369;52.030;4.586;2023-04-23T10:36:56;-15828.84;;;-144.41;100.00
41684;BME280;27369;52.030;4.586;2023-04-23T10:39:25;-15828.84;;;-144.41;100.00
41684;BME280;27369;52.030;4.586;2023-04-23T10:41:53;-15081.75;;;-144.41;100.00
41684;BME280;27369;52.030;4.586;2023-04-23T10:44:19;-15330.78;;;-144.41;100.00
41684;BME280;27369;52.030;4.586;2023-04-23T10:46:53;-14334.47;;;-144.41;100.00
41684;BME280;27369;52.030;4.586;2023-04-23T10:49:22;-14583.59;;;-144.41;100.00
41684;BME280;27369;52.030;4.586;2023-04-23T10:51:48;-13587.06;;;-144.41;100.00
41684;BME280;27369;52.030;4.586;2023-04-23T10:54:15;-12839.53;;;-144.41;100.00
41684;BME280;27369;52.030;4.586;2023-04-23T10:56:42;-12839.53;;;-144.41;100.00
41684;BME280;27369;52.030;4.586;2023-04-23T10:59:17;-11593.28;;;-144.41;100.00
41684;BME280;27369;52.030;4.586;2023-04-23T11:01:45;-11344.00;;;-144.41;100.00
41684;BME280;27369;52.030;4.586;2023-04-23T11:04:32;-12341.06;;;-144.41;100.00
41684;BME280;27369;52.030;4.586;2023-04-23T11:09:48;-13587.06;;;-144.41;100.00
41684;BME280;27369;52.030;4.586;2023-04-23T11:14:49;-12091.84;;;-144.41;100.00
41684;BME280;27369;52.030;4.586;2023-04-23T11:17:22;-12091.84;;;-144.41;100.00
41684;BME280;27369;52.030;4.586;2023-04-23T11:22:57;-11344.00;;;-144.41;100.00
41684;BME280;27369;52.030;4.586;2023-04-23T11:25:26;-11593.28;;;-144.41;100.00
41684;BME280;27369;52.030;4.586;2023-04-23T11:27:53;-11344.00;;;-144.41;100.00
41684;BME280;27369;52.030;4.586;2023-04-23T11:30:20;-11344.00;;;-144.41;100.00
41684;BME280;27369;52.030;4.586;2023-04-23T11:32:48;-10596.00;;;-144.41;100.00
41684;BME280;27369;52.030;4.586;2023-04-23T11:35:14;-9099.59;;;-144.41;100.00
41684;BME280;27369;52.030;4.586;2023-04-23T11:37:42;-8600.66;;;-144.41;100.00
41684;BME280;27369;52.030;4.586;2023-04-23T11:40:12;-7353.03;;;-144.41;100.00
41684;BME280;27369;52.030;4.586;2023-04-23T11:42:47;-5356.00;;;-144.41;100.00
41684;BME280;27369;52.030;4.586;2023-04-23T11:45:24;-6105.00;;;-144.41;100.00
41684;BME280;27369;52.030;4.586;2023-04-23T11:47:52;-5855.34;;;-144.41;100.00
41684;BME280;27369;52.030;4.586;2023-04-23T11:50:31;-3857.53;;;-144.41;100.00
41684;BME280;27369;52.030;4.586;2023-04-23T11:53:03;-1608.75;;;-144.41;100.00
41684;BME280;27369;52.030;4.586;2023-04-23T11:55:29;-108.81;;;-144.41;100.00
41684;BME280;27369;52.030;4.586;2023-04-23T11:57:55;-1108.84;;;-144.41;100.00
41684;BME280;27369;52.030;4.586;2023-04-23T12:00:22;-608.84;;;-144.41;100.00
41684;BME280;27369;52.030;4.586;2023-04-23T12:05:33;891.47;;;-144.41;100.00
41684;BME280;27369;52.030;4.586;2023-04-23T12:08:10;1892.00;;;-144.41;100.00
41684;BME280;27369;52.030;4.586;2023-04-23T12:10:45;891.47;;;-144.41;100.00
41684;BME280;27369;52.030;4.586;2023-04-23T12:13:20;-358.84;;;-144.41;100.00
41684;BME280;27369;52.030;4.586;2023-04-23T12:15:50;2142.16;;;-144.41;100.00
41684;BME280;27369;52.030;4.586;2023-04-23T12:18:16;2392.34;;;-144.41;100.00
41684;BME280;27369;52.030;4.586;2023-04-23T12:20:41;2892.78;;;-144.41;100.00
41684;BME280;27369;52.030;4.586;2023-04-23T12:23:07;3393.28;;;-144.41;100.00
41684;BME280;27369;52.030;4.586;2023-04-23T12:25:33;5145.50;;;-144.41;100.00
41684;BME280;27369;52.030;4.586;2023-04-23T12:27:59;6397.59;;;-144.41;100.00
41684;BME280;27369;52.030;4.586;2023-04-23T12:30:32;6648.06;;;-144.41;100.00
41684;BME280;27369;52.030;4.586;2023-04-23T12:33:01;7399.56;;;-144.41;100.00
41684;BME280;27369;52.030;4.586;2023-04-23T12:35:38;9153.59;;;-144.41;100.00
41684;BME280;27369;52.030;4.586;2023-04-23T12:38:04;8902.97;;;-144.41;100.00